KRAL/RAL METAR and TAF weather

Enter ICAO airport designator
Station Type Date Time Source
KRAL METAR 2021/07/24 20:53 UTC NOAA

KRAL 242053Z 26007KT 10SM CLR 30/15 A2999 RMK AO2 SLP139 T03000150 58014


Station Type Date Time Source
KRAL Decoded METAR 2021/07/24 20:53 UTC NOAA

RIVERSIDE MUNICIPAL AIRPORT , CA, United States (KRAL) 33-57N 117-27W 252M
Jul 24, 2021 - 04:53 PM EDT / 2021.07.24 2053 UTC
Wind: from the W (260 degrees) at 8 MPH (7 KT):0
Visibility: 10 mile(s):0
Sky conditions: clear
Temperature: 86.0 F (30.0 C)
Dew Point: 59.0 F (15.0 C)
Relative Humidity: 40%
Pressure (altimeter): 29.99 in. Hg (1015 hPa)
Pressure tendency: 0.04 inches (1.4 hPa) lower than three hours ago
ob: KRAL 242053Z 26007KT 10SM CLR 30/15 A2999 RMK AO2 SLP139 T03000150 58014
cycle: 21

Station Type Date Time Source
KRAL TAF UTC NOAA

Error!

Example: see airport list